Time;durP1;ratioP1;P1;durP2;ratioP2;P2;SDS_P1;SDS_P2;PMS_P1;PMS_P2;Temp;Humidity;BMP_temperature;BMP_pressure;BME280_temperature;BME280_humidity;BME280_pressure;Samples;Min_cycle;Max_cycle;Signal;HPM_P1;HPM_P2
2023/08/26 00:02:26;;;;;;;;;;;20.80;99.90;;;;;;5073228;28;19916;-68
2023/08/26 00:04:52;;;;;;;;;;;20.70;99.90;;;;;;5073527;28;20385;-67
2023/08/26 00:07:17;;;;;;;;;;;20.70;99.90;;;;;;5073546;28;20000;-68
2023/08/26 00:09:43;;;;;;;;;;;20.70;99.90;;;;;;5073307;28;19939;-67
2023/08/26 00:12:08;;;;;;;;;;;20.70;99.90;;;;;;5073673;28;19999;-67
2023/08/26 00:14:34;;;;;;;;;;;20.70;99.90;;;;;;5073820;28;19909;-67
2023/08/26 00:17:00;;;;;;;;;;;20.70;99.90;;;;;;5073346;28;19995;-67
2023/08/26 00:19:25;;;;;;;;;;;20.70;99.90;;;;;;5073384;28;19924;-68
2023/08/26 00:21:52;;;;;;;;;;;20.70;99.90;;;;;;5072988;28;19998;-67
2023/08/26 00:24:18;;;;;;;;;;;20.70;99.90;;;;;;5073175;28;20304;-67
2023/08/26 00:26:43;;;;;;;;;;;20.70;99.90;;;;;;5073605;28;19912;-68
2023/08/26 00:29:09;;;;;;;;;;;20.70;99.90;;;;;;5088886;28;20405;-66
2023/08/26 00:31:35;;;;;;;;;;;20.70;99.90;;;;;;5073143;28;20144;-67
2023/08/26 00:34:03;;;;;;;;;;;20.70;99.90;;;;;;5071844;28;20377;-67
2023/08/26 00:36:30;;;;;;;;;;;20.60;99.90;;;;;;5071811;28;20490;-67
2023/08/26 00:38:56;;;;;;;;;;;20.70;99.90;;;;;;5073590;28;19909;-67
2023/08/26 00:41:21;;;;;;;;;;;20.70;99.90;;;;;;5072771;28;20020;-67
2023/08/26 00:43:47;;;;;;;;;;;20.70;99.90;;;;;;5088598;28;19927;-68
2023/08/26 00:46:13;;;;;;;;;;;20.70;99.90;;;;;;5072538;28;19912;-67
2023/08/26 00:48:39;;;;;;;;;;;20.70;99.90;;;;;;5071521;28;19928;-67
2023/08/26 00:51:05;;;;;;;;;;;20.60;99.90;;;;;;5072591;28;20250;-67
2023/08/26 00:53:31;;;;;;;;;;;20.60;99.90;;;;;;5072670;28;20023;-67
2023/08/26 00:55:56;;;;;;;;;;;20.60;99.90;;;;;;5072593;28;19916;-68
2023/08/26 00:58:23;;;;;;;;;;;20.70;99.90;;;;;;5072424;28;19924;-67
2023/08/26 01:00:48;;;;;;;;;;;20.60;99.90;;;;;;5072111;28;20057;-68
2023/08/26 01:03:14;;;;;;;;;;;20.70;99.90;;;;;;5072538;28;20015;-67
2023/08/26 01:05:40;;;;;;;;;;;20.60;99.90;;;;;;5072737;28;19932;-67
2023/08/26 01:08:06;;;;;;;;;;;20.70;99.90;;;;;;5072561;28;20369;-68
2023/08/26 01:10:40;;;;;;;;;;;20.60;99.90;;;;;;5072248;28;19913;-68
2023/08/26 01:13:08;;;;;;;;;;;20.70;99.90;;;;;;5072417;28;19913;-67
2023/08/26 01:15:36;;;;;;;;;;;20.60;99.90;;;;;;5072158;28;19916;-68
2023/08/26 01:18:05;;;;;;;;;;;20.60;99.90;;;;;;5072498;28;20345;-68
2023/08/26 01:20:31;;;;;;;;;;;20.60;99.90;;;;;;5072131;28;19920;-67
2023/08/26 01:22:59;;;;;;;;;;;20.60;99.90;;;;;;5072057;28;19916;-67
2023/08/26 01:25:25;;;;;;;;;;;20.60;99.90;;;;;;5072109;28;20317;-67
2023/08/26 01:27:51;;;;;;;;;;;20.60;99.90;;;;;;5067634;28;19980;-68
2023/08/26 01:30:16;;;;;;;;;;;20.60;99.90;;;;;;5053597;28;20306;-68
2023/08/26 01:33:20;;;;;;;;;;;20.60;99.90;;;;;;5072161;28;20247;-68
2023/08/26 01:35:47;;;;;;;;;;;20.70;99.90;;;;;;4998144;28;20392;-67
2023/08/26 01:38:15;;;;;;;;;;;20.70;99.90;;;;;;5009993;28;19925;-67
2023/08/26 01:40:42;;;;;;;;;;;20.70;99.90;;;;;;5039905;28;20033;-67
2023/08/26 01:43:07;;;;;;;;;;;20.70;99.90;;;;;;5071559;28;19920;-66
2023/08/26 01:45:33;;;;;;;;;;;20.70;99.90;;;;;;5070790;28;19920;-67
2023/08/26 01:47:58;;;;;;;;;;;20.70;99.90;;;;;;5072135;28;19916;-67
2023/08/26 01:50:24;;;;;;;;;;;20.70;99.90;;;;;;5071720;28;20359;-68
2023/08/26 01:52:49;;;;;;;;;;;20.70;99.90;;;;;;5071555;28;20014;-67
2023/08/26 01:55:15;;;;;;;;;;;20.70;99.90;;;;;;5071582;28;19955;-67
2023/08/26 01:57:41;;;;;;;;;;;20.60;99.90;;;;;;5070538;28;20322;-67
2023/08/26 02:00:06;;;;;;;;;;;20.60;99.90;;;;;;5071783;28;20003;-67
2023/08/26 02:02:32;;;;;;;;;;;20.60;99.90;;;;;;5071140;28;20342;-67
2023/08/26 02:04:58;;;;;;;;;;;20.60;99.90;;;;;;5071777;28;19912;-67
2023/08/26 02:07:23;;;;;;;;;;;20.60;99.90;;;;;;5072112;28;19924;-67
2023/08/26 02:09:49;;;;;;;;;;;20.60;99.90;;;;;;5071683;28;20332;-68
2023/08/26 02:12:14;;;;;;;;;;;20.50;99.90;;;;;;5071475;28;19955;-68
2023/08/26 02:14:40;;;;;;;;;;;20.50;99.90;;;;;;5071889;28;19904;-67
2023/08/26 02:17:05;;;;;;;;;;;20.50;99.90;;;;;;5071428;28;19955;-68
2023/08/26 02:19:31;;;;;;;;;;;20.40;99.90;;;;;;5071484;28;20262;-68
2023/08/26 02:21:56;;;;;;;;;;;20.50;99.90;;;;;;5071394;28;19931;-68
2023/08/26 02:24:22;;;;;;;;;;;20.50;99.90;;;;;;5071428;28;19908;-68
2023/08/26 02:26:48;;;;;;;;;;;20.50;99.90;;;;;;5071846;28;19915;-68
2023/08/26 02:29:13;;;;;;;;;;;20.50;99.90;;;;;;5071223;28;19923;-68
2023/08/26 02:31:39;;;;;;;;;;;20.50;99.90;;;;;;5071328;28;19943;-68
2023/08/26 02:34:04;;;;;;;;;;;20.50;99.90;;;;;;5071310;28;19924;-68
2023/08/26 02:36:30;;;;;;;;;;;20.50;99.90;;;;;;5071159;28;20262;-68
2023/08/26 02:38:55;;;;;;;;;;;20.50;99.90;;;;;;5071941;28;19978;-67
2023/08/26 02:41:21;;;;;;;;;;;20.50;99.90;;;;;;5071448;28;19913;-68
2023/08/26 02:43:46;;;;;;;;;;;20.50;99.90;;;;;;5071222;28;19927;-69
2023/08/26 02:46:12;;;;;;;;;;;20.40;99.90;;;;;;5071390;28;19912;-69
2023/08/26 02:48:37;;;;;;;;;;;20.50;99.90;;;;;;5071175;28;20003;-69
2023/08/26 02:51:03;;;;;;;;;;;20.50;99.90;;;;;;5071893;28;20015;-69
2023/08/26 02:53:30;;;;;;;;;;;20.50;99.90;;;;;;5071193;28;20011;-68
2023/08/26 02:55:56;;;;;;;;;;;20.50;99.90;;;;;;5071023;28;20372;-68
2023/08/26 02:58:22;;;;;;;;;;;20.50;99.90;;;;;;5070146;28;20163;-68
2023/08/26 03:00:47;;;;;;;;;;;20.50;99.90;;;;;;5069921;28;19924;-67
2023/08/26 03:03:14;;;;;;;;;;;20.40;99.90;;;;;;5070640;28;20342;-66
2023/08/26 03:05:40;;;;;;;;;;;20.40;99.90;;;;;;5071539;28;19912;-69
2023/08/26 03:08:06;;;;;;;;;;;20.40;99.90;;;;;;5070844;28;19913;-68
2023/08/26 03:10:31;;;;;;;;;;;20.40;99.90;;;;;;5070957;28;19970;-67
2023/08/26 03:12:57;;;;;;;;;;;20.40;99.90;;;;;;5071252;28;19921;-68
2023/08/26 03:15:25;;;;;;;;;;;20.50;99.90;;;;;;5073644;28;19959;-68
2023/08/26 03:17:51;;;;;;;;;;;20.50;99.90;;;;;;5075187;28;19952;-68
2023/08/26 03:20:17;;;;;;;;;;;20.40;99.90;;;;;;5074327;28;19958;-68
2023/08/26 03:22:42;;;;;;;;;;;20.40;99.90;;;;;;5074276;28;19928;-68
2023/08/26 03:25:08;;;;;;;;;;;20.40;99.90;;;;;;5074294;28;19913;-68
2023/08/26 03:27:33;;;;;;;;;;;20.40;99.90;;;;;;5074499;28;19939;-68
2023/08/26 03:29:59;;;;;;;;;;;20.40;99.90;;;;;;5074863;28;20326;-67
2023/08/26 03:32:25;;;;;;;;;;;20.50;99.90;;;;;;5072978;28;19913;-68
2023/08/26 03:34:51;;;;;;;;;;;20.50;99.90;;;;;;5074011;28;19935;-67
2023/08/26 03:37:16;;;;;;;;;;;20.50;99.90;;;;;;5073936;28;20012;-67
2023/08/26 03:39:42;;;;;;;;;;;20.40;99.90;;;;;;5073970;28;19923;-67
2023/08/26 03:42:07;;;;;;;;;;;20.50;99.90;;;;;;5074277;28;19912;-67
2023/08/26 03:44:33;;;;;;;;;;;20.50;99.90;;;;;;5074250;28;19940;-67
2023/08/26 03:46:58;;;;;;;;;;;20.40;99.90;;;;;;5073981;28;19920;-67
2023/08/26 03:49:24;;;;;;;;;;;20.40;99.90;;;;;;5073737;28;19924;-68
2023/08/26 03:51:50;;;;;;;;;;;20.40;99.90;;;;;;5074017;28;19947;-67
2023/08/26 03:54:15;;;;;;;;;;;20.50;99.90;;;;;;5072705;28;19919;-67
2023/08/26 03:56:41;;;;;;;;;;;20.50;99.90;;;;;;5073219;28;19915;-66
2023/08/26 03:59:07;;;;;;;;;;;20.40;99.90;;;;;;5073757;28;19913;-66
2023/08/26 04:01:33;;;;;;;;;;;20.40;99.90;;;;;;5072473;28;19912;-68
2023/08/26 04:03:59;;;;;;;;;;;20.40;99.90;;;;;;5073606;28;19947;-68
2023/08/26 04:06:24;;;;;;;;;;;20.40;99.90;;;;;;5073531;28;19924;-68
2023/08/26 04:08:50;;;;;;;;;;;20.40;99.90;;;;;;5072843;28;20368;-67
2023/08/26 04:11:17;;;;;;;;;;;20.40;99.90;;;;;;5072509;28;19913;-69
2023/08/26 04:13:43;;;;;;;;;;;20.40;99.90;;;;;;5073562;28;20274;-68
2023/08/26 04:16:08;;;;;;;;;;;20.40;99.90;;;;;;5073414;28;20023;-67
2023/08/26 04:18:34;;;;;;;;;;;20.40;99.90;;;;;;5073788;28;20414;-68
2023/08/26 04:21:00;;;;;;;;;;;20.40;99.90;;;;;;5073783;28;19912;-67
2023/08/26 04:23:25;;;;;;;;;;;20.40;99.90;;;;;;5073177;28;20051;-68
2023/08/26 04:25:54;;;;;;;;;;;20.40;99.90;;;;;;5072195;28;19919;-68
2023/08/26 04:28:19;;;;;;;;;;;20.40;99.90;;;;;;5073163;28;20366;-68
2023/08/26 04:30:45;;;;;;;;;;;20.40;99.90;;;;;;5072923;28;19982;-68
2023/08/26 04:33:11;;;;;;;;;;;20.40;99.90;;;;;;5072973;28;20253;-69
2023/08/26 04:35:36;;;;;;;;;;;20.40;99.90;;;;;;5072741;28;19913;-68
2023/08/26 04:38:03;;;;;;;;;;;20.30;99.90;;;;;;5071875;28;19912;-67
2023/08/26 04:40:28;;;;;;;;;;;20.30;99.90;;;;;;5073072;28;19974;-68
2023/08/26 04:42:56;;;;;;;;;;;20.30;99.90;;;;;;5073014;28;20403;-69
2023/08/26 04:45:22;;;;;;;;;;;20.30;99.90;;;;;;5071788;28;19958;-69
2023/08/26 04:47:48;;;;;;;;;;;20.30;99.90;;;;;;5073525;28;19904;-68
2023/08/26 04:50:14;;;;;;;;;;;20.20;99.90;;;;;;5072745;28;19913;-68
2023/08/26 04:52:40;;;;;;;;;;;20.20;99.90;;;;;;5072772;28;20252;-68
2023/08/26 04:55:07;;;;;;;;;;;20.20;99.90;;;;;;5072650;28;19981;-69
2023/08/26 04:57:32;;;;;;;;;;;20.20;99.90;;;;;;5072440;28;19919;-68
2023/08/26 04:59:58;;;;;;;;;;;20.10;99.90;;;;;;5073253;28;19908;-69
2023/08/26 05:02:23;;;;;;;;;;;20.10;99.90;;;;;;5072351;28;20316;-69
2023/08/26 05:04:50;;;;;;;;;;;20.10;99.90;;;;;;5072628;28;19917;-68
2023/08/26 05:07:16;;;;;;;;;;;20.00;99.90;;;;;;5072345;28;20315;-68
2023/08/26 05:09:42;;;;;;;;;;;20.00;99.90;;;;;;5072316;28;20059;-68
2023/08/26 05:12:07;;;;;;;;;;;20.00;99.90;;;;;;5072158;28;19912;-68
2023/08/26 05:14:33;;;;;;;;;;;20.00;99.90;;;;;;5072624;28;19900;-68
2023/08/26 05:16:59;;;;;;;;;;;20.00;99.90;;;;;;5072144;28;20350;-67
2023/08/26 05:19:24;;;;;;;;;;;20.00;99.90;;;;;;5072105;28;19974;-68
2023/08/26 05:21:50;;;;;;;;;;;20.00;99.90;;;;;;5071837;28;19948;-67
2023/08/26 05:24:15;;;;;;;;;;;20.10;99.90;;;;;;5072116;28;19919;-68
2023/08/26 05:26:42;;;;;;;;;;;20.10;99.90;;;;;;5071245;28;19962;-68
2023/08/26 05:29:08;;;;;;;;;;;20.20;99.90;;;;;;5071935;28;19951;-68
2023/08/26 05:31:34;;;;;;;;;;;20.20;99.90;;;;;;5071965;28;19952;-68
2023/08/26 05:34:00;;;;;;;;;;;20.20;99.90;;;;;;5071602;28;19938;-68
2023/08/26 05:36:25;;;;;;;;;;;20.30;99.90;;;;;;5071810;28;19916;-67
2023/08/26 05:38:51;;;;;;;;;;;20.30;99.90;;;;;;5070992;28;19904;-69
2023/08/26 05:41:16;;;;;;;;;;;20.30;99.90;;;;;;5071836;28;19913;-68
2023/08/26 05:43:42;;;;;;;;;;;20.40;99.90;;;;;;5071219;28;19931;-68
2023/08/26 05:46:07;;;;;;;;;;;20.40;99.90;;;;;;5071749;28;19912;-68
2023/08/26 05:48:33;;;;;;;;;;;20.50;99.90;;;;;;5071671;28;20303;-67
2023/08/26 05:50:59;;;;;;;;;;;20.60;99.90;;;;;;5071769;28;20302;-67
2023/08/26 05:53:25;;;;;;;;;;;20.50;99.90;;;;;;5071332;28;19916;-69
2023/08/26 05:55:50;;;;;;;;;;;20.50;99.90;;;;;;5071245;28;20303;-67
2023/08/26 05:58:16;;;;;;;;;;;20.50;99.90;;;;;;5071326;28;19924;-67
2023/08/26 06:00:41;;;;;;;;;;;20.50;99.90;;;;;;5070794;28;20444;-67
2023/08/26 06:03:07;;;;;;;;;;;20.50;99.90;;;;;;5071089;28;19912;-67
2023/08/26 06:05:32;;;;;;;;;;;20.40;99.90;;;;;;5071626;28;19911;-68
2023/08/26 06:07:58;;;;;;;;;;;20.50;99.90;;;;;;5071135;28;19913;-67
2023/08/26 06:10:23;;;;;;;;;;;20.50;99.90;;;;;;5071061;28;20037;-68
2023/08/26 06:12:49;;;;;;;;;;;20.50;99.90;;;;;;5070225;28;19924;-67
2023/08/26 06:15:14;;;;;;;;;;;20.50;99.90;;;;;;5071095;28;20003;-67
2023/08/26 06:17:41;;;;;;;;;;;20.50;99.90;;;;;;5070502;28;19915;-67
2023/08/26 06:20:07;;;;;;;;;;;20.40;99.90;;;;;;5071237;28;20008;-68
2023/08/26 06:22:32;;;;;;;;;;;20.40;99.90;;;;;;5070998;28;20007;-67
2023/08/26 06:24:58;;;;;;;;;;;20.50;99.90;;;;;;5070852;28;19989;-67
2023/08/26 06:27:25;;;;;;;;;;;20.50;99.90;;;;;;5071193;28;19955;-68
2023/08/26 06:29:54;;;;;;;;;;;20.50;99.90;;;;;;5071716;28;19908;-67
2023/08/26 06:32:20;;;;;;;;;;;20.50;99.90;;;;;;5071090;28;19931;-68
2023/08/26 06:34:46;;;;;;;;;;;20.60;99.90;;;;;;5070795;28;20279;-67
2023/08/26 06:37:12;;;;;;;;;;;20.80;99.90;;;;;;5071043;28;20341;-67
2023/08/26 06:39:37;;;;;;;;;;;20.70;99.90;;;;;;5070926;28;19913;-67
2023/08/26 06:42:03;;;;;;;;;;;20.80;99.90;;;;;;5071146;28;19980;-67
2023/08/26 06:44:28;;;;;;;;;;;20.80;99.90;;;;;;5070988;28;19916;-68
2023/08/26 06:46:54;;;;;;;;;;;20.80;99.90;;;;;;5070911;28;19916;-67
2023/08/26 06:49:20;;;;;;;;;;;20.90;99.90;;;;;;5072174;28;19923;-66
2023/08/26 06:51:45;;;;;;;;;;;20.90;99.90;;;;;;5073592;28;19912;-67
2023/08/26 06:54:11;;;;;;;;;;;20.90;99.90;;;;;;5073767;28;19908;-67
2023/08/26 06:56:36;;;;;;;;;;;20.70;99.90;;;;;;5075372;28;19958;-67
2023/08/26 06:59:02;;;;;;;;;;;20.70;99.90;;;;;;5074486;28;19923;-67
2023/08/26 07:01:28;;;;;;;;;;;20.60;99.90;;;;;;5074740;28;19991;-67
2023/08/26 07:04:01;;;;;;;;;;;20.40;99.90;;;;;;5073447;28;19930;-69
2023/08/26 07:06:28;;;;;;;;;;;20.20;99.90;;;;;;5074442;28;19960;-68
2023/08/26 07:08:54;;;;;;;;;;;20.10;99.90;;;;;;5074962;28;19912;-68
2023/08/26 07:11:19;;;;;;;;;;;19.90;99.50;;;;;;5074506;28;19924;-68
2023/08/26 07:13:45;;;;;;;;;;;19.90;99.00;;;;;;5074452;28;20297;-68
2023/08/26 07:16:11;;;;;;;;;;;19.80;98.80;;;;;;5074468;28;19913;-69
2023/08/26 07:18:36;;;;;;;;;;;19.80;98.50;;;;;;5074247;28;20387;-68
2023/08/26 07:21:02;;;;;;;;;;;19.60;96.90;;;;;;5074654;28;20007;-68
2023/08/26 07:23:28;;;;;;;;;;;19.60;96.30;;;;;;5073933;28;20396;-68
2023/08/26 07:25:53;;;;;;;;;;;19.50;96.40;;;;;;5072921;28;20345;-69
2023/08/26 07:28:19;;;;;;;;;;;19.50;96.90;;;;;;5074235;28;20350;-69
2023/08/26 07:30:44;;;;;;;;;;;19.50;96.70;;;;;;5073944;28;19943;-68
2023/08/26 07:33:10;;;;;;;;;;;19.50;96.90;;;;;;5073948;28;19924;-69
2023/08/26 07:35:35;;;;;;;;;;;19.60;97.00;;;;;;5074237;28;19969;-69
2023/08/26 07:38:01;;;;;;;;;;;19.70;96.70;;;;;;5073838;28;19923;-69
2023/08/26 07:40:26;;;;;;;;;;;19.60;96.10;;;;;;5073818;28;19923;-69
2023/08/26 07:42:52;;;;;;;;;;;19.60;96.70;;;;;;5072521;28;19928;-69
2023/08/26 07:45:17;;;;;;;;;;;19.70;96.50;;;;;;5073757;28;19944;-69
2023/08/26 07:47:43;;;;;;;;;;;19.70;96.10;;;;;;5074224;28;19905;-69
2023/08/26 07:50:09;;;;;;;;;;;19.70;95.90;;;;;;5073677;28;19943;-69
2023/08/26 07:52:35;;;;;;;;;;;19.60;95.30;;;;;;5073532;28;19954;-69
2023/08/26 07:55:01;;;;;;;;;;;19.60;95.20;;;;;;5073514;28;19997;-68
2023/08/26 07:57:26;;;;;;;;;;;19.50;95.10;;;;;;5073408;28;21292;-68
2023/08/26 07:59:52;;;;;;;;;;;19.50;95.00;;;;;;5073461;28;19909;-69
2023/08/26 08:02:17;;;;;;;;;;;19.60;94.50;;;;;;5072546;28;20024;-68
2023/08/26 08:04:43;;;;;;;;;;;19.60;94.50;;;;;;5073357;28;19912;-69
2023/08/26 08:07:08;;;;;;;;;;;19.70;94.40;;;;;;5073126;28;20607;-70
2023/08/26 08:09:34;;;;;;;;;;;19.80;94.40;;;;;;5073426;28;19917;-71
2023/08/26 08:11:59;;;;;;;;;;;19.70;93.80;;;;;;5073416;28;20029;-70
2023/08/26 08:14:25;;;;;;;;;;;19.80;94.20;;;;;;5073195;28;19946;-70
2023/08/26 08:16:51;;;;;;;;;;;20.00;93.90;;;;;;5072167;28;19995;-70
2023/08/26 08:19:16;;;;;;;;;;;20.10;93.70;;;;;;5071922;28;20349;-69
2023/08/26 08:21:41;;;;;;;;;;;20.40;92.80;;;;;;5073149;28;19935;-69
2023/08/26 08:24:07;;;;;;;;;;;20.90;92.70;;;;;;5073140;28;19985;-68
2023/08/26 08:26:33;;;;;;;;;;;21.50;91.80;;;;;;5073566;28;19913;-68
2023/08/26 08:28:59;;;;;;;;;;;22.30;91.10;;;;;;5072583;28;20374;-68
2023/08/26 08:31:24;;;;;;;;;;;22.50;89.90;;;;;;5072637;28;20034;-68
2023/08/26 08:33:50;;;;;;;;;;;23.30;89.30;;;;;;5072812;28;20049;-68
2023/08/26 08:36:15;;;;;;;;;;;24.30;86.20;;;;;;5072660;28;19909;-67
2023/08/26 08:38:41;;;;;;;;;;;25.40;84.00;;;;;;5072929;28;19904;-68
2023/08/26 08:41:06;;;;;;;;;;;25.90;85.40;;;;;;5072555;28;19923;-69
2023/08/26 08:43:36;;;;;;;;;;;27.10;79.90;;;;;;5072344;28;19936;-68
2023/08/26 08:46:02;;;;;;;;;;;27.60;76.30;;;;;;5072581;28;20284;-68
2023/08/26 08:48:28;;;;;;;;;;;27.60;76.10;;;;;;5072775;28;19920;-68
2023/08/26 08:50:54;;;;;;;;;;;27.70;74.60;;;;;;5073095;28;19943;-68
2023/08/26 08:53:23;;;;;;;;;;;27.70;72.20;;;;;;5072456;28;20003;-68
2023/08/26 08:55:48;;;;;;;;;;;27.70;71.80;;;;;;5072485;28;19913;-70
2023/08/26 08:58:14;;;;;;;;;;;27.90;72.30;;;;;;5071294;28;20035;-69
2023/08/26 09:00:40;;;;;;;;;;;28.00;70.30;;;;;;5072240;28;19916;-70
2023/08/26 09:03:07;;;;;;;;;;;27.80;69.80;;;;;;5071752;28;20083;-70
2023/08/26 09:05:32;;;;;;;;;;;27.90;69.60;;;;;;5072609;28;19923;-70
2023/08/26 09:07:59;;;;;;;;;;;27.60;71.30;;;;;;5071094;28;19912;-70
2023/08/26 09:10:25;;;;;;;;;;;27.70;69.40;;;;;;5079457;28;20324;-69
2023/08/26 09:12:51;;;;;;;;;;;27.40;69.00;;;;;;5092058;28;20262;-68
2023/08/26 09:15:16;;;;;;;;;;;26.40;70.20;;;;;;5092467;28;20157;-69
2023/08/26 09:17:46;;;;;;;;;;;26.70;70.00;;;;;;5092986;28;20112;-72
2023/08/26 09:20:11;;;;;;;;;;;27.30;70.30;;;;;;5091296;28;19919;-70
2023/08/26 09:22:37;;;;;;;;;;;27.90;70.40;;;;;;5092276;28;19915;-70
2023/08/26 09:25:03;;;;;;;;;;;29.00;69.00;;;;;;5092055;28;20010;-69
2023/08/26 09:27:32;;;;;;;;;;;29.80;65.30;;;;;;5092261;28;19927;-69
2023/08/26 09:29:58;;;;;;;;;;;30.20;64.70;;;;;;5092858;28;19909;-71
2023/08/26 09:32:31;;;;;;;;;;;29.90;61.70;;;;;;5092231;28;19999;-70
2023/08/26 09:35:07;;;;;;;;;;;29.90;61.90;;;;;;5092152;28;19935;-69
2023/08/26 09:37:33;;;;;;;;;;;29.00;63.50;;;;;;5092206;28;19912;-69
2023/08/26 09:39:58;;;;;;;;;;;29.30;63.40;;;;;;5090822;28;19990;-70
2023/08/26 09:42:24;;;;;;;;;;;28.60;64.10;;;;;;5092054;28;20064;-69
2023/08/26 09:44:49;;;;;;;;;;;28.80;62.60;;;;;;5092393;28;19919;-70
2023/08/26 09:47:15;;;;;;;;;;;28.70;62.80;;;;;;5092041;28;19912;-72
2023/08/26 09:49:46;;;;;;;;;;;29.20;64.30;;;;;;5092107;28;19912;-74
2023/08/26 09:52:12;;;;;;;;;;;28.20;63.90;;;;;;5092015;28;19999;-74
2023/08/26 09:54:38;;;;;;;;;;;27.70;64.40;;;;;;5092137;28;19920;-74
2023/08/26 09:57:03;;;;;;;;;;;26.70;66.20;;;;;;5092356;28;19973;-72
2023/08/26 09:59:29;;;;;;;;;;;26.30;67.20;;;;;;5092186;28;19924;-72
2023/08/26 10:01:56;;;;;;;;;;;26.60;66.70;;;;;;5090842;28;19916;-72
2023/08/26 10:04:26;;;;;;;;;;;26.60;66.20;;;;;;5091724;28;19947;-73
2023/08/26 10:06:53;;;;;;;;;;;26.30;66.50;;;;;;5091788;28;19924;-72
2023/08/26 10:09:26;;;;;;;;;;;25.00;67.30;;;;;;5089893;28;19918;-73
2023/08/26 10:11:54;;;;;;;;;;;24.60;69.20;;;;;;5071880;28;20012;-73
2023/08/26 10:14:21;;;;;;;;;;;24.60;70.00;;;;;;5090178;28;19927;-72
2023/08/26 10:16:47;;;;;;;;;;;24.20;70.60;;;;;;5091674;28;19918;-73
2023/08/26 10:19:13;;;;;;;;;;;23.60;71.70;;;;;;5091778;28;19916;-71
2023/08/26 10:21:38;;;;;;;;;;;23.70;72.90;;;;;;5090551;28;19920;-71
2023/08/26 10:24:04;;;;;;;;;;;23.40;73.70;;;;;;5092605;28;19927;-72
2023/08/26 10:26:30;;;;;;;;;;;23.00;75.30;;;;;;5096020;28;19939;-71
2023/08/26 10:28:56;;;;;;;;;;;23.00;76.00;;;;;;5095805;28;20061;-71
2023/08/26 10:31:30;;;;;;;;;;;22.90;77.30;;;;;;5094912;28;20223;-72
2023/08/26 10:34:05;;;;;;;;;;;23.60;76.70;;;;;;5095684;28;19931;-72
2023/08/26 10:36:33;;;;;;;;;;;23.30;76.60;;;;;;5094427;28;19912;-71
2023/08/26 10:38:59;;;;;;;;;;;23.30;77.30;;;;;;5084543;28;20223;-71
2023/08/26 10:41:25;;;;;;;;;;;23.10;77.90;;;;;;5075065;28;20396;-70
2023/08/26 10:43:54;;;;;;;;;;;23.30;78.10;;;;;;5075441;28;19921;-71
2023/08/26 10:46:35;;;;;;;;;;;22.70;79.00;;;;;;5075513;28;19927;-69
2023/08/26 10:49:01;;;;;;;;;;;22.60;79.70;;;;;;5075462;28;19928;-70
2023/08/26 10:51:27;;;;;;;;;;;22.30;80.60;;;;;;5075383;28;19908;-71
2023/08/26 10:53:59;;;;;;;;;;;22.50;80.80;;;;;;5075508;28;20396;-70
2023/08/26 10:56:26;;;;;;;;;;;22.90;81.10;;;;;;5075218;28;19916;-70
2023/08/26 10:58:52;;;;;;;;;;;23.30;80.20;;;;;;5075292;28;19971;-71
2023/08/26 11:01:18;;;;;;;;;;;23.70;79.50;;;;;;5075299;28;20006;-70
2023/08/26 11:03:47;;;;;;;;;;;24.10;77.30;;;;;;5075038;28;19982;-72
2023/08/26 11:06:19;;;;;;;;;;;24.40;77.90;;;;;;5073783;28;19909;-71
2023/08/26 11:08:52;;;;;;;;;;;24.40;76.50;;;;;;5074854;28;19931;-72
2023/08/26 11:11:17;;;;;;;;;;;24.20;77.30;;;;;;5075590;28;19923;-71
2023/08/26 11:13:45;;;;;;;;;;;24.00;77.60;;;;;;5093771;28;19915;-71
2023/08/26 11:16:11;;;;;;;;;;;24.10;78.50;;;;;;5093906;28;20270;-72
2023/08/26 11:18:36;;;;;;;;;;;24.00;79.10;;;;;;5094621;28;19916;-70
2023/08/26 11:21:05;;;;;;;;;;;24.00;79.00;;;;;;5095308;28;20397;-70
2023/08/26 11:23:31;;;;;;;;;;;23.80;79.50;;;;;;5093192;28;19920;-70
2023/08/26 11:25:56;;;;;;;;;;;23.80;79.80;;;;;;5094720;28;20326;-71
2023/08/26 11:28:22;;;;;;;;;;;23.80;79.70;;;;;;5094536;28;19912;-70
2023/08/26 11:30:49;;;;;;;;;;;23.90;79.80;;;;;;5093833;28;19916;-70
2023/08/26 11:33:15;;;;;;;;;;;23.70;79.90;;;;;;5094415;28;19934;-71
2023/08/26 11:35:41;;;;;;;;;;;23.70;80.30;;;;;;5079238;28;20306;-72
2023/08/26 11:38:07;;;;;;;;;;;23.60;80.30;;;;;;5089697;28;19912;-72
2023/08/26 11:40:33;;;;;;;;;;;23.50;79.40;;;;;;5074116;28;19939;-72
2023/08/26 11:43:04;;;;;;;;;;;23.60;79.50;;;;;;5074043;28;19964;-72
2023/08/26 11:45:29;;;;;;;;;;;23.80;79.90;;;;;;5073989;28;19927;-72
2023/08/26 11:47:55;;;;;;;;;;;23.60;79.60;;;;;;5074432;28;19999;-71
2023/08/26 11:50:21;;;;;;;;;;;23.70;80.20;;;;;;5073681;28;20333;-71
2023/08/26 11:52:47;;;;;;;;;;;23.60;78.70;;;;;;5073609;28;19913;-70
2023/08/26 11:55:13;;;;;;;;;;;23.60;79.20;;;;;;5073744;28;19916;-70
2023/08/26 11:57:39;;;;;;;;;;;23.90;79.30;;;;;;5073577;28;20342;-69
2023/08/26 12:00:07;;;;;;;;;;;23.90;79.50;;;;;;5073842;28;19916;-69
2023/08/26 12:02:33;;;;;;;;;;;23.80;78.80;;;;;;5088994;28;19974;-70
2023/08/26 12:04:59;;;;;;;;;;;23.70;79.30;;;;;;5073213;28;19920;-70
2023/08/26 12:07:25;;;;;;;;;;;23.80;78.50;;;;;;5073015;28;20010;-71
2023/08/26 12:09:51;;;;;;;;;;;23.80;78.10;;;;;;5073237;28;19924;-71
2023/08/26 12:12:23;;;;;;;;;;;24.10;77.70;;;;;;5073154;28;20425;-72
2023/08/26 12:14:49;;;;;;;;;;;24.20;76.70;;;;;;5073361;28;19969;-69
2023/08/26 12:17:15;;;;;;;;;;;24.30;75.50;;;;;;5073281;28;20435;-69
2023/08/26 12:19:41;;;;;;;;;;;24.30;74.70;;;;;;5073611;28;19927;-70
2023/08/26 12:22:07;;;;;;;;;;;24.40;75.50;;;;;;5073173;28;19916;-70
2023/08/26 12:24:34;;;;;;;;;;;24.20;75.40;;;;;;5072999;28;20258;-70
2023/08/26 12:27:10;;;;;;;;;;;24.30;75.20;;;;;;5073495;28;19912;-70
2023/08/26 12:29:37;;;;;;;;;;;24.20;75.00;;;;;;5073093;28;19929;-71
2023/08/26 12:32:04;;;;;;;;;;;24.20;73.90;;;;;;5072964;28;19912;-70
2023/08/26 12:34:30;;;;;;;;;;;23.90;74.80;;;;;;5072876;28;19935;-71
2023/08/26 12:36:56;;;;;;;;;;;24.10;74.50;;;;;;5072697;28;19923;-69
2023/08/26 12:39:27;;;;;;;;;;;24.10;73.40;;;;;;5072878;28;19912;-71
2023/08/26 12:41:53;;;;;;;;;;;24.00;73.50;;;;;;5073037;28;19923;-69
2023/08/26 12:44:21;;;;;;;;;;;24.20;73.90;;;;;;5072762;28;19916;-70
2023/08/26 12:46:46;;;;;;;;;;;24.10;72.70;;;;;;5071816;28;20008;-69
2023/08/26 12:49:12;;;;;;;;;;;24.20;73.20;;;;;;5072523;28;20003;-71
2023/08/26 12:51:38;;;;;;;;;;;24.20;74.70;;;;;;5071423;28;19943;-70
2023/08/26 12:54:03;;;;;;;;;;;24.10;75.70;;;;;;5071785;28;20120;-71
2023/08/26 12:56:29;;;;;;;;;;;23.90;75.50;;;;;;5072524;28;20050;-71
2023/08/26 12:58:55;;;;;;;;;;;24.00;76.10;;;;;;5072284;28;19973;-70
2023/08/26 13:01:20;;;;;;;;;;;24.00;75.90;;;;;;5072757;28;20350;-71
2023/08/26 13:03:45;;;;;;;;;;;24.10;76.00;;;;;;5072197;28;20404;-70
2023/08/26 13:06:13;;;;;;;;;;;24.10;76.00;;;;;;5071183;28;19908;-71
2023/08/26 13:08:38;;;;;;;;;;;24.00;75.40;;;;;;5071556;28;19904;-69
2023/08/26 13:11:04;;;;;;;;;;;23.90;75.90;;;;;;5070915;28;20397;-69
2023/08/26 13:13:30;;;;;;;;;;;24.10;75.20;;;;;;5071974;28;19928;-71
2023/08/26 13:15:55;;;;;;;;;;;24.00;75.00;;;;;;5071946;28;19922;-71
2023/08/26 13:18:21;;;;;;;;;;;24.00;74.70;;;;;;5072213;28;19920;-70
2023/08/26 13:20:47;;;;;;;;;;;24.10;73.50;;;;;;5072305;28;19905;-70
2023/08/26 13:23:13;;;;;;;;;;;23.90;73.20;;;;;;5071789;28;19916;-70
2023/08/26 13:25:38;;;;;;;;;;;24.00;72.80;;;;;;5071682;28;20006;-70
2023/08/26 13:28:05;;;;;;;;;;;23.90;73.40;;;;;;5072083;28;19999;-70
2023/08/26 13:30:31;;;;;;;;;;;23.80;73.80;;;;;;5087414;28;19914;-71
2023/08/26 13:32:57;;;;;;;;;;;23.80;73.60;;;;;;5072194;28;19919;-71
2023/08/26 13:35:22;;;;;;;;;;;23.70;73.60;;;;;;5071583;28;20326;-71
2023/08/26 13:37:48;;;;;;;;;;;23.80;73.50;;;;;;5071578;28;19996;-70
2023/08/26 13:40:14;;;;;;;;;;;23.80;74.00;;;;;;5071595;28;19917;-69
2023/08/26 13:42:39;;;;;;;;;;;23.90;74.10;;;;;;5071437;28;20331;-71
2023/08/26 13:45:05;;;;;;;;;;;23.90;74.00;;;;;;5087854;28;20061;-69
2023/08/26 13:47:30;;;;;;;;;;;24.00;73.90;;;;;;5071441;28;19924;-70
2023/08/26 13:49:56;;;;;;;;;;;24.00;73.10;;;;;;5071412;28;20415;-70
2023/08/26 13:52:22;;;;;;;;;;;24.00;73.20;;;;;;5071463;28;20003;-70
2023/08/26 13:54:47;;;;;;;;;;;23.90;73.00;;;;;;5071446;28;20352;-70
2023/08/26 13:57:13;;;;;;;;;;;23.80;72.80;;;;;;5071357;28;20354;-70
2023/08/26 13:59:38;;;;;;;;;;;23.60;73.20;;;;;;5071733;28;19901;-70
2023/08/26 14:02:07;;;;;;;;;;;23.70;73.60;;;;;;5071646;28;19977;-71
2023/08/26 14:04:32;;;;;;;;;;;23.50;73.30;;;;;;5087090;28;19939;-70
2023/08/26 14:06:58;;;;;;;;;;;23.80;74.30;;;;;;5071042;28;20311;-70
2023/08/26 14:09:23;;;;;;;;;;;23.80;73.30;;;;;;5070942;28;20026;-69
2023/08/26 14:11:49;;;;;;;;;;;23.90;73.50;;;;;;5071659;28;19916;-71